Time;durP1;ratioP1;P1;durP2;ratioP2;P2;SDS_P1;SDS_P2;PMS_P1;PMS_P2;Temp;Humidity;BMP_temperature;BMP_pressure;BME280_temperature;BME280_humidity;BME280_pressure;Samples;Min_cycle;Max_cycle;Signal;HPM_P1;HPM_P2
2022/09/30 00:02:15;;;;;;;9.63;7.33;;;10.10;99.90;;;;;;4982042;28;20203;-74
2022/09/30 00:04:41;;;;;;;7.90;6.70;;;10.00;99.90;;;;;;4973263;28;20238;-74
2022/09/30 00:07:06;;;;;;;7.80;6.63;;;10.00;99.90;;;;;;4972207;28;20217;-74
2022/09/30 00:09:32;;;;;;;8.17;7.37;;;10.00;99.90;;;;;;4978931;28;20212;-74
2022/09/30 00:11:57;;;;;;;7.33;5.97;;;10.00;99.90;;;;;;4976618;28;20219;-74
2022/09/30 00:14:23;;;;;;;8.50;6.27;;;9.90;99.90;;;;;;4974733;28;20254;-74
2022/09/30 00:16:49;;;;;;;9.00;6.73;;;9.90;99.90;;;;;;4976831;28;20209;-73
2022/09/30 00:19:15;;;;;;;8.07;6.60;;;9.80;99.90;;;;;;4975591;28;20220;-74
2022/09/30 00:21:41;;;;;;;8.13;6.47;;;9.90;99.90;;;;;;4975595;28;20178;-73
2022/09/30 00:24:07;;;;;;;9.57;7.40;;;9.80;99.90;;;;;;4971496;28;20210;-74
2022/09/30 00:26:33;;;;;;;7.57;6.77;;;9.80;99.90;;;;;;4976783;28;20584;-74
2022/09/30 00:29:00;;;;;;;8.93;7.10;;;9.90;99.90;;;;;;4980060;28;20232;-74
2022/09/30 00:31:29;;;;;;;12.10;7.30;;;9.80;99.90;;;;;;4972476;28;20654;-73
2022/09/30 00:34:07;;;;;;;9.13;6.80;;;9.90;99.90;;;;;;4974893;28;20213;-73
2022/09/30 00:36:36;;;;;;;8.30;6.93;;;9.80;99.90;;;;;;4975762;28;20221;-73
2022/09/30 00:39:03;;;;;;;8.17;7.07;;;9.70;99.90;;;;;;4977297;28;20297;-74
2022/09/30 00:41:29;;;;;;;7.73;6.93;;;9.70;99.90;;;;;;4973599;28;20202;-74
2022/09/30 00:43:54;;;;;;;8.83;7.10;;;9.60;99.90;;;;;;4975862;28;20595;-74
2022/09/30 00:46:38;;;;;;;11.67;7.30;;;9.60;99.90;;;;;;4980204;28;20293;-73
2022/09/30 00:49:17;;;;;;;8.17;6.53;;;9.60;99.90;;;;;;4969371;28;20170;-74
2022/09/30 00:51:49;;;;;;;8.03;6.53;;;9.60;99.90;;;;;;4971869;28;20728;-74
2022/09/30 00:54:20;;;;;;;9.77;7.30;;;9.60;99.90;;;;;;4978069;28;20211;-74
2022/09/30 00:56:51;;;;;;;8.80;7.37;;;9.60;99.90;;;;;;4972353;28;20217;-74
2022/09/30 00:59:22;;;;;;;8.83;7.37;;;9.50;99.90;;;;;;4970136;28;20261;-74
2022/09/30 01:01:48;;;;;;;7.67;6.83;;;9.40;99.90;;;;;;4976066;28;20685;-74
2022/09/30 01:04:19;;;;;;;9.20;7.10;;;9.40;99.90;;;;;;4974479;28;20264;-73
2022/09/30 01:06:45;;;;;;;8.60;6.83;;;9.50;99.90;;;;;;4969896;28;20193;-73
2022/09/30 01:09:11;;;;;;;9.60;7.27;;;9.50;99.90;;;;;;4972130;28;20277;-73
2022/09/30 01:11:37;;;;;;;10.07;7.77;;;9.50;99.90;;;;;;4979413;28;20894;-74
2022/09/30 01:14:11;;;;;;;9.13;7.60;;;9.50;99.90;;;;;;4974907;28;20213;-73
2022/09/30 01:16:48;;;;;;;9.17;6.97;;;9.50;99.90;;;;;;4980293;28;20224;-73
2022/09/30 01:19:25;;;;;;;10.13;7.17;;;9.40;99.90;;;;;;4978832;28;20719;-74
2022/09/30 01:22:15;;;;;;;11.47;7.77;;;9.50;99.90;;;;;;4978526;28;20185;-74
2022/09/30 01:25:03;;;;;;;10.23;7.63;;;9.40;99.90;;;;;;4980769;28;20688;-73
2022/09/30 01:27:50;;;;;;;9.10;7.47;;;9.40;99.90;;;;;;4982978;28;20209;-73
2022/09/30 01:30:20;;;;;;;8.80;7.43;;;9.40;99.90;;;;;;4980848;28;20657;-74
2022/09/30 01:32:56;;;;;;;10.30;7.63;;;9.30;99.90;;;;;;4988187;28;20206;-74
2022/09/30 01:35:50;;;;;;;12.63;7.57;;;9.40;99.90;;;;;;4981520;28;20229;-74
2022/09/30 01:38:35;;;;;;;8.97;7.50;;;9.30;99.90;;;;;;4983123;28;20221;-73
2022/09/30 01:41:10;;;;;;;8.50;7.20;;;9.30;99.90;;;;;;4971165;28;20249;-74
2022/09/30 01:44:12;;;;;;;9.70;7.43;;;9.40;99.90;;;;;;4981875;28;20605;-74
2022/09/30 01:46:43;;;;;;;10.33;7.73;;;9.40;99.90;;;;;;4966368;28;20228;-73
2022/09/30 01:49:28;;;;;;;9.97;7.67;;;9.30;99.90;;;;;;4972216;28;20186;-74
2022/09/30 01:52:14;;;;;;;10.37;8.50;;;9.30;99.90;;;;;;4977437;28;20277;-74
2022/09/30 01:54:58;;;;;;;9.27;8.00;;;9.30;99.90;;;;;;4980949;28;20707;-73
2022/09/30 01:57:36;;;;;;;12.03;8.07;;;9.30;99.90;;;;;;4970428;28;20309;-74
2022/09/30 02:00:06;;;;;;;9.90;7.53;;;9.30;99.90;;;;;;4975975;28;20413;-74
2022/09/30 02:02:47;;;;;;;11.70;8.57;;;9.30;99.90;;;;;;4978427;28;20557;-73
2022/09/30 02:05:20;;;;;;;10.17;7.43;;;9.30;99.90;;;;;;4974343;28;20230;-74
2022/09/30 02:07:53;;;;;;;10.90;7.97;;;9.20;99.90;;;;;;4973701;28;20304;-74
2022/09/30 02:10:34;;;;;;;11.70;8.10;;;9.20;99.90;;;;;;4980950;28;20206;-74
2022/09/30 02:13:09;;;;;;;14.50;9.23;;;9.20;99.90;;;;;;4979043;28;20881;-74
2022/09/30 02:15:41;;;;;;;13.00;8.07;;;9.20;99.90;;;;;;4977429;28;20213;-74
2022/09/30 02:18:18;;;;;;;8.57;7.43;;;9.20;99.90;;;;;;4965352;28;20619;-74
2022/09/30 02:20:49;;;;;;;10.40;7.60;;;9.20;99.90;;;;;;4981085;28;20221;-73
2022/09/30 02:23:24;;;;;;;11.47;8.53;;;9.10;99.90;;;;;;4970983;28;20203;-73
2022/09/30 02:26:15;;;;;;;11.67;8.73;;;9.10;99.90;;;;;;4978419;28;20221;-74
2022/09/30 02:28:47;;;;;;;10.70;7.80;;;9.10;99.90;;;;;;4981023;28;20210;-73
2022/09/30 02:31:14;;;;;;;11.53;7.57;;;9.10;99.90;;;;;;4974165;28;20183;-73
2022/09/30 02:34:02;;;;;;;9.27;8.00;;;9.10;99.90;;;;;;4979784;28;20232;-73
2022/09/30 02:36:29;;;;;;;9.83;8.00;;;9.10;99.90;;;;;;4981777;28;20229;-73
2022/09/30 02:39:04;;;;;;;9.03;7.47;;;9.10;99.90;;;;;;4986715;28;20740;-73
2022/09/30 02:41:37;;;;;;;13.03;8.17;;;9.00;99.90;;;;;;4976850;28;20226;-74
2022/09/30 02:44:03;;;;;;;9.70;7.97;;;9.10;99.90;;;;;;4975951;28;20304;-73
2022/09/30 02:47:07;;;;;;;9.53;7.30;;;9.00;99.90;;;;;;4977011;28;20233;-73
2022/09/30 02:49:44;;;;;;;11.50;6.93;;;8.90;99.90;;;;;;4978104;28;20218;-73
2022/09/30 02:52:20;;;;;;;10.70;8.13;;;9.00;99.90;;;;;;4980014;28;20269;-74
2022/09/30 02:54:49;;;;;;;10.20;7.63;;;8.90;99.90;;;;;;4980752;28;20761;-73
2022/09/30 02:57:34;;;;;;;10.87;7.23;;;9.00;99.90;;;;;;4980227;28;20217;-73
2022/09/30 02:59:59;;;;;;;9.50;7.27;;;9.00;99.90;;;;;;4980743;28;20218;-73
2022/09/30 03:02:25;;;;;;;9.67;7.13;;;8.90;99.90;;;;;;4984212;28;20210;-72
2022/09/30 03:04:50;;;;;;;9.90;7.20;;;8.90;99.90;;;;;;4979998;28;20233;-74
2022/09/30 03:07:16;;;;;;;8.90;7.10;;;9.00;99.90;;;;;;4980602;28;20668;-73
2022/09/30 03:09:42;;;;;;;8.83;7.07;;;8.90;99.90;;;;;;4983043;28;20185;-74
2022/09/30 03:12:27;;;;;;;10.37;7.60;;;8.90;99.90;;;;;;4987413;28;20570;-74
2022/09/30 03:15:17;;;;;;;9.00;7.03;;;8.90;99.90;;;;;;4987029;28;20206;-74
2022/09/30 03:18:10;;;;;;;8.33;6.97;;;8.80;99.90;;;;;;4979532;28;20268;-72
2022/09/30 03:21:03;;;;;;;11.87;8.07;;;8.80;99.90;;;;;;4962706;28;20233;-72
2022/09/30 03:23:45;;;;;;;9.13;7.30;;;8.80;99.90;;;;;;4981796;28;20210;-72
2022/09/30 03:26:25;;;;;;;10.67;7.50;;;8.80;99.90;;;;;;4979483;28;20293;-71
2022/09/30 03:29:24;;;;;;;8.27;7.00;;;8.80;99.90;;;;;;4980511;28;20221;-73
2022/09/30 03:31:58;;;;;;;12.00;7.90;;;8.80;99.90;;;;;;4976299;28;20286;-73
2022/09/30 03:34:57;;;;;;;8.53;6.80;;;8.70;99.90;;;;;;4981922;28;20261;-73
2022/09/30 03:38:07;;;;;;;12.67;8.43;;;8.80;99.90;;;;;;4981121;28;20248;-72
2022/09/30 03:40:57;;;;;;;9.57;7.43;;;8.80;99.90;;;;;;4956532;28;20281;-72
2022/09/30 03:43:31;;;;;;;10.97;7.80;;;8.80;99.90;;;;;;4977934;28;20260;-74
2022/09/30 03:46:17;;;;;;;9.73;8.50;;;8.80;99.90;;;;;;4979817;28;20544;-72
2022/09/30 03:48:45;;;;;;;10.80;8.17;;;8.80;99.90;;;;;;4981795;28;20702;-73
2022/09/30 03:51:12;;;;;;;10.80;7.70;;;8.80;99.90;;;;;;4978607;28;20677;-73
2022/09/30 03:53:40;;;;;;;11.80;7.67;;;8.80;99.90;;;;;;4982276;28;20264;-72
2022/09/30 03:56:06;;;;;;;10.17;7.80;;;8.70;99.90;;;;;;4979041;28;20245;-73
2022/09/30 03:58:32;;;;;;;9.57;7.93;;;8.70;99.90;;;;;;4981522;28;20249;-73
2022/09/30 04:00:58;;;;;;;11.43;7.33;;;8.60;99.90;;;;;;4979937;28;20210;-72
2022/09/30 04:03:25;;;;;;;11.00;7.67;;;8.60;99.90;;;;;;4982770;28;20241;-73
2022/09/30 04:05:50;;;;;;;10.07;8.07;;;8.70;99.90;;;;;;4979571;28;20248;-72
2022/09/30 04:08:16;;;;;;;10.63;7.83;;;8.70;99.90;;;;;;4979970;28;20209;-72
2022/09/30 04:10:43;;;;;;;10.03;7.83;;;8.70;99.90;;;;;;4981347;28;20575;-72
2022/09/30 04:13:09;;;;;;;10.33;7.97;;;8.70;99.90;;;;;;4980161;28;20174;-72
2022/09/30 04:15:35;;;;;;;10.67;8.10;;;8.80;99.90;;;;;;4982350;28;20225;-72
2022/09/30 04:18:02;;;;;;;11.10;7.70;;;8.80;99.90;;;;;;4980276;28;20302;-73
2022/09/30 04:20:29;;;;;;;12.60;8.03;;;8.80;99.90;;;;;;4977713;28;20210;-71
2022/09/30 04:22:57;;;;;;;10.23;7.73;;;8.70;99.90;;;;;;4979154;28;20206;-73
2022/09/30 04:25:23;;;;;;;9.93;7.43;;;8.70;99.90;;;;;;4995603;28;20236;-72
2022/09/30 04:27:48;;;;;;;10.37;7.67;;;8.60;99.90;;;;;;4980905;28;20181;-72
2022/09/30 04:30:14;;;;;;;12.57;7.80;;;8.60;99.90;;;;;;4978170;28;20604;-73
2022/09/30 04:32:44;;;;;;;10.30;7.87;;;8.60;99.90;;;;;;4982370;28;20652;-71
2022/09/30 04:35:11;;;;;;;10.80;7.50;;;8.60;99.90;;;;;;4978029;28;20280;-73
2022/09/30 04:37:41;;;;;;;10.23;7.57;;;8.60;99.90;;;;;;4981065;28;20233;-73
2022/09/30 04:40:08;;;;;;;10.00;8.23;;;8.50;99.90;;;;;;4978649;28;20640;-73
2022/09/30 04:42:34;;;;;;;11.20;7.83;;;8.60;99.90;;;;;;4982169;28;20206;-73
2022/09/30 04:45:00;;;;;;;12.20;9.07;;;8.60;99.90;;;;;;4978613;28;20730;-72
2022/09/30 04:47:25;;;;;;;10.07;8.00;;;8.50;99.90;;;;;;4974016;28;20216;-72
2022/09/30 04:49:51;;;;;;;10.43;7.73;;;8.50;99.90;;;;;;4982123;28;20678;-73
2022/09/30 04:52:16;;;;;;;11.53;7.90;;;8.50;99.90;;;;;;4984472;28;20186;-73
2022/09/30 04:54:42;;;;;;;11.43;8.43;;;8.60;99.90;;;;;;4983402;28;20205;-73
2022/09/30 04:57:07;;;;;;;11.17;8.23;;;8.50;99.90;;;;;;4982567;28;20249;-74
2022/09/30 04:59:33;;;;;;;11.87;8.53;;;8.50;99.90;;;;;;5000351;28;20225;-73
2022/09/30 05:01:58;;;;;;;10.10;7.37;;;8.50;99.90;;;;;;4982554;28;20249;-73
2022/09/30 05:04:24;;;;;;;13.53;8.67;;;8.50;99.90;;;;;;4983554;28;20177;-73
2022/09/30 05:06:49;;;;;;;11.13;8.53;;;8.50;99.90;;;;;;4994404;28;20208;-72
2022/09/30 05:09:15;;;;;;;13.83;8.50;;;8.50;99.90;;;;;;4989401;28;20224;-72
2022/09/30 05:11:41;;;;;;;10.67;8.17;;;8.50;99.90;;;;;;4986234;28;20212;-72
2022/09/30 05:14:08;;;;;;;10.60;8.00;;;8.50;99.90;;;;;;4989419;28;20233;-72
2022/09/30 05:16:33;;;;;;;11.33;8.50;;;8.50;99.90;;;;;;4991537;28;20726;-72
2022/09/30 05:18:59;;;;;;;11.70;8.97;;;8.50;99.90;;;;;;4986862;28;20237;-72
2022/09/30 05:21:24;;;;;;;12.07;8.43;;;8.50;99.90;;;;;;4985824;28;20213;-72
2022/09/30 05:23:52;;;;;;;12.20;8.90;;;8.60;99.90;;;;;;4988660;28;20751;-72
2022/09/30 05:26:18;;;;;;;12.67;8.43;;;8.60;99.90;;;;;;4985018;28;20220;-72
2022/09/30 05:28:43;;;;;;;12.23;8.43;;;8.60;99.90;;;;;;4986759;28;20588;-72
2022/09/30 05:31:12;;;;;;;11.30;7.60;;;8.60;99.90;;;;;;4990655;28;20265;-72
2022/09/30 05:33:38;;;;;;;11.80;8.70;;;8.60;99.90;;;;;;4992385;28;20573;-72
2022/09/30 05:36:07;;;;;;;10.43;8.40;;;8.70;99.90;;;;;;4988463;28;20225;-72
2022/09/30 05:38:33;;;;;;;14.90;8.10;;;8.80;99.90;;;;;;4984983;28;20216;-72
2022/09/30 05:41:06;;;;;;;13.80;9.13;;;8.70;99.90;;;;;;4988566;28;20214;-72
2022/09/30 05:43:32;;;;;;;11.23;7.80;;;8.70;99.90;;;;;;5004831;28;20632;-72
2022/09/30 05:45:57;;;;;;;13.63;8.37;;;8.70;99.90;;;;;;4983351;28;20252;-72
2022/09/30 05:48:24;;;;;;;16.20;8.33;;;8.80;99.90;;;;;;4989111;28;20692;-72
2022/09/30 05:50:54;;;;;;;12.23;8.27;;;8.80;99.90;;;;;;4989037;28;20704;-72
2022/09/30 05:53:19;;;;;;;10.77;8.53;;;8.90;99.90;;;;;;5001446;28;20210;-72
2022/09/30 05:55:49;;;;;;;14.07;8.63;;;8.90;99.90;;;;;;4983301;28;20783;-72
2022/09/30 05:58:15;;;;;;;13.83;8.27;;;9.80;99.90;;;;;;4991183;28;20197;-72
2022/09/30 06:00:42;;;;;;;10.87;7.57;;;10.80;99.90;;;;;;4987868;28;20645;-73
2022/09/30 06:03:08;;;;;;;9.77;6.80;;;11.70;99.90;;;;;;4984614;28;20242;-73
2022/09/30 06:05:33;;;;;;;7.90;6.63;;;12.20;99.90;;;;;;4988312;28;20276;-73
2022/09/30 06:07:59;;;;;;;10.23;6.63;;;12.50;99.90;;;;;;4988604;28;20219;-73
2022/09/30 06:10:25;;;;;;;7.07;6.20;;;13.30;99.90;;;;;;4987803;28;20620;-72
2022/09/30 06:12:51;;;;;;;8.85;7.15;;;13.60;99.90;;;;;;4983059;28;20210;-74
2022/09/30 06:15:17;;;;;;;9.70;7.18;;;14.10;99.90;;;;;;4990993;28;20248;-74
2022/09/30 06:17:42;;;;;;;9.15;6.50;;;14.30;99.90;;;;;;4988160;28;20597;-74
2022/09/30 06:20:11;;;;;;;8.02;6.68;;;14.90;99.90;;;;;;4984737;28;20218;-73
2022/09/30 06:22:37;;;;;;;7.93;6.85;;;15.30;99.90;;;;;;4983889;28;20700;-73
2022/09/30 06:25:06;;;;;;;11.32;6.88;;;15.40;99.90;;;;;;4987605;28;20225;-74
2022/09/30 06:27:37;;;;;;;10.05;6.47;;;15.80;99.90;;;;;;4986076;28;20205;-73
2022/09/30 06:30:03;;;;;;;8.63;7.05;;;16.10;99.90;;;;;;4981410;28;20242;-74
2022/09/30 06:32:29;;;;;;;11.07;7.15;;;15.70;99.90;;;;;;4990686;28;20215;-75
2022/09/30 06:34:55;;;;;;;9.18;6.78;;;16.30;99.90;;;;;;4986573;28;20226;-74
2022/09/30 06:37:22;;;;;;;10.57;7.25;;;16.40;99.90;;;;;;4986480;28;20590;-74
2022/09/30 06:39:49;;;;;;;10.00;6.55;;;16.30;99.90;;;;;;4984984;28;20194;-74
2022/09/30 06:42:15;;;;;;;7.95;6.13;;;16.00;99.90;;;;;;4989043;28;20221;-74
2022/09/30 06:44:40;;;;;;;8.32;6.68;;;16.60;99.90;;;;;;4986167;28;20217;-74
2022/09/30 06:47:07;;;;;;;8.25;6.43;;;16.60;99.90;;;;;;4983569;28;20752;-74
2022/09/30 06:49:33;;;;;;;10.43;7.68;;;15.90;99.90;;;;;;4990700;28;20293;-74
2022/09/30 06:51:59;;;;;;;9.63;7.32;;;15.90;99.90;;;;;;4985781;28;20203;-74
2022/09/30 06:54:27;;;;;;;9.65;6.80;;;16.40;99.90;;;;;;4986348;28;20285;-74
2022/09/30 06:56:54;;;;;;;9.30;6.88;;;16.30;99.90;;;;;;4981055;28;20209;-74
2022/09/30 06:59:20;;;;;;;10.38;8.05;;;16.40;99.90;;;;;;5003807;28;20296;-74
2022/09/30 07:01:45;;;;;;;10.68;7.38;;;16.90;99.90;;;;;;4985693;28;20237;-74
2022/09/30 07:04:11;;;;;;;8.75;7.28;;;16.70;99.90;;;;;;4985809;28;20182;-74
2022/09/30 07:06:38;;;;;;;9.65;7.22;;;17.00;99.90;;;;;;4986304;28;20299;-74
2022/09/30 07:09:05;;;;;;;9.63;7.55;;;17.00;99.90;;;;;;4986587;28;20206;-74
2022/09/30 07:11:30;;;;;;;13.15;7.90;;;17.20;99.90;;;;;;4984274;28;20208;-74
2022/09/30 07:13:56;;;;;;;11.05;7.70;;;17.40;99.90;;;;;;4989356;28;20210;-74
2022/09/30 07:16:24;;;;;;;11.02;7.85;;;17.30;99.90;;;;;;4989658;28;20284;-74
2022/09/30 07:18:50;;;;;;;9.38;7.30;;;18.10;99.90;;;;;;4983992;28;20280;-75
2022/09/30 07:21:16;;;;;;;8.38;6.93;;;17.20;99.90;;;;;;4984048;28;20216;-74
2022/09/30 07:23:47;;;;;;;11.35;7.68;;;17.40;99.90;;;;;;4987145;28;20216;-75
2022/09/30 07:26:15;;;;;;;8.95;8.02;;;17.30;99.90;;;;;;4986335;28;20304;-74
2022/09/30 07:28:42;;;;;;;9.57;7.40;;;16.90;99.90;;;;;;4984062;28;20209;-75
2022/09/30 07:31:14;;;;;;;10.60;7.85;;;17.30;99.90;;;;;;4985329;28;20178;-74
2022/09/30 07:33:40;;;;;;;10.77;7.93;;;17.50;99.90;;;;;;4989337;28;20170;-74
2022/09/30 07:36:07;;;;;;;10.68;7.63;;;16.90;99.90;;;;;;4984773;28;20210;-74
2022/09/30 07:38:35;;;;;;;14.00;7.90;;;17.20;99.90;;;;;;4983242;28;20220;-74
2022/09/30 07:41:12;;;;;;;11.35;8.27;;;16.60;99.90;;;;;;4987326;28;20736;-74
2022/09/30 07:43:41;;;;;;;10.13;8.40;;;16.70;99.90;;;;;;4996492;28;20209;-74
2022/09/30 07:46:13;;;;;;;15.38;8.45;;;16.50;99.90;;;;;;4982939;28;20607;-74
2022/09/30 07:48:46;;;;;;;12.30;8.20;;;16.60;99.90;;;;;;4987747;28;20699;-74
2022/09/30 07:51:20;;;;;;;11.63;8.57;;;16.70;99.90;;;;;;4986391;28;20248;-75
2022/09/30 07:53:48;;;;;;;10.23;8.88;;;16.50;99.90;;;;;;4984273;28;20709;-74
2022/09/30 07:56:15;;;;;;;10.65;7.78;;;16.60;99.90;;;;;;4983157;28;20213;-74
2022/09/30 07:58:41;;;;;;;12.05;8.45;;;17.00;99.90;;;;;;4989411;28;20268;-74
2022/09/30 08:01:07;;;;;;;11.63;8.55;;;16.80;99.90;;;;;;4983611;28;20206;-74
2022/09/30 08:03:38;;;;;;;9.13;7.57;;;16.50;99.90;;;;;;4984000;28;20583;-74
2022/09/30 08:06:15;;;;;;;9.88;8.35;;;16.50;99.90;;;;;;4987491;28;20304;-74
2022/09/30 08:08:43;;;;;;;14.43;9.20;;;16.70;99.90;;;;;;4981716;28;20312;-74
2022/09/30 08:11:10;;;;;;;11.60;8.50;;;16.50;99.90;;;;;;4983615;28;20708;-74
2022/09/30 08:13:36;;;;;;;11.77;9.05;;;16.50;99.90;;;;;;4983897;28;20232;-74
2022/09/30 08:16:03;;;;;;;11.82;8.30;;;16.60;99.90;;;;;;4988473;28;20269;-74
2022/09/30 08:18:29;;;;;;;16.23;10.48;;;16.10;99.90;;;;;;4986875;28;20214;-74
2022/09/30 08:20:55;;;;;;;11.68;9.00;;;15.60;99.90;;;;;;4981018;28;20234;-74
2022/09/30 08:23:21;;;;;;;12.93;9.45;;;15.80;99.90;;;;;;4986219;28;20248;-74
2022/09/30 08:25:46;;;;;;;10.82;8.90;;;15.90;99.90;;;;;;4985762;28;20213;-75
2022/09/30 08:28:13;;;;;;;12.82;9.27;;;16.00;99.90;;;;;;4983111;28;20310;-73
2022/09/30 08:30:39;;;;;;;10.60;9.50;;;16.30;99.90;;;;;;4982414;28;20221;-74
2022/09/30 08:33:05;;;;;;;11.85;8.68;;;16.30;99.90;;;;;;4986423;28;20696;-74
2022/09/30 08:35:30;;;;;;;11.18;9.55;;;16.60;99.90;;;;;;5001333;28;20209;-74
2022/09/30 08:37:56;;;;;;;15.65;10.13;;;16.30;99.90;;;;;;4980642;28;20338;-74
2022/09/30 08:40:32;;;;;;;11.95;8.68;;;16.30;99.90;;;;;;4986124;28;20554;-74
2022/09/30 08:43:29;;;;;;;11.77;9.75;;;16.50;99.90;;;;;;4986089;28;20196;-74
2022/09/30 08:46:11;;;;;;;12.10;10.02;;;16.30;99.90;;;;;;4983158;28;20301;-74
2022/09/30 08:48:46;;;;;;;14.55;10.18;;;16.20;99.90;;;;;;4986247;28;20209;-74
2022/09/30 08:51:26;;;;;;;13.60;10.00;;;16.30;99.90;;;;;;4989951;28;20693;-74
2022/09/30 08:53:54;;;;;;;12.13;9.07;;;16.70;99.90;;;;;;4982544;28;20222;-74
2022/09/30 08:56:24;;;;;;;13.75;9.38;;;16.80;99.90;;;;;;4980829;28;20216;-74
2022/09/30 08:59:04;;;;;;;10.85;9.65;;;16.70;99.90;;;;;;4987184;28;20233;-73
2022/09/30 09:01:37;;;;;;;13.20;9.88;;;16.40;99.90;;;;;;4985741;28;20210;-73
2022/09/30 09:04:04;;;;;;;12.20;8.98;;;16.50;99.90;;;;;;4979596;28;20269;-73
2022/09/30 09:06:41;;;;;;;11.73;8.85;;;16.30;99.90;;;;;;4985561;28;20631;-73
2022/09/30 09:09:44;;;;;;;12.40;7.88;;;16.20;99.90;;;;;;4985029;28;20593;-73
2022/09/30 09:12:41;;;;;;;9.40;8.05;;;16.60;99.90;;;;;;4982245;28;20209;-74
2022/09/30 09:15:21;;;;;;;10.73;8.73;;;17.00;99.90;;;;;;4986352;28;20807;-74
2022/09/30 09:17:57;;;;;;;11.32;8.50;;;17.20;99.90;;;;;;4981478;28;20355;-73
2022/09/30 09:20:31;;;;;;;11.55;8.30;;;17.10;99.90;;;;;;4983923;28;20209;-73
2022/09/30 09:22:56;;;;;;;11.50;8.18;;;17.10;99.90;;;;;;4984943;28;20210;-74
2022/09/30 09:25:27;;;;;;;10.13;7.97;;;17.00;99.90;;;;;;4989624;28;20205;-73
2022/09/30 09:28:05;;;;;;;9.80;8.60;;;17.00;99.90;;;;;;4982565;28;20178;-74
2022/09/30 09:30:44;;;;;;;10.60;7.93;;;17.10;99.90;;;;;;4995481;28;20209;-73
2022/09/30 09:33:31;;;;;;;13.05;8.45;;;17.00;99.90;;;;;;4985825;28;20237;-74
2022/09/30 09:36:11;;;;;;;10.05;6.63;;;17.20;99.90;;;;;;4982474;28;20218;-74
2022/09/30 09:39:06;;;;;;;10.40;7.57;;;17.00;99.90;;;;;;4983891;28;20213;-74
2022/09/30 09:41:54;;;;;;;9.43;7.10;;;17.50;99.90;;;;;;4988825;28;20224;-74
2022/09/30 09:44:48;;;;;;;8.60;6.75;;;17.20;99.90;;;;;;4985676;28;20198;-73
2022/09/30 09:47:14;;;;;;;11.77;7.43;;;16.90;99.90;;;;;;4985636;28;20238;-74
2022/09/30 09:49:54;;;;;;;7.65;6.53;;;16.80;99.90;;;;;;4987187;28;20209;-73
2022/09/30 09:52:49;;;;;;;7.30;6.45;;;16.80;99.90;;;;;;4985364;28;20292;-73
2022/09/30 09:55:19;;;;;;;9.68;7.70;;;16.70;99.90;;;;;;4970246;28;20581;-74
2022/09/30 09:57:45;;;;;;;9.32;7.00;;;16.70;99.90;;;;;;4987835;28;20732;-74
2022/09/30 10:03:26;;;;;;;8.38;6.32;;;16.80;99.90;;;;;;4934965;29;20555;-72
2022/09/30 10:06:05;;;;;;;10.38;7.57;;;17.20;99.90;;;;;;4976031;28;20604;-72
2022/09/30 10:08:38;;;;;;;9.90;7.57;;;17.20;99.90;;;;;;4990030;28;20208;-73
2022/09/30 10:11:31;;;;;;;7.65;6.10;;;16.80;99.90;;;;;;4969221;28;20623;-73
2022/09/30 10:13:59;;;;;;;7.85;5.95;;;16.70;99.90;;;;;;4981327;28;20221;-73
2022/09/30 10:16:35;;;;;;;7.57;5.50;;;16.80;99.90;;;;;;4990662;28;20200;-73
2022/09/30 10:19:02;;;;;;;7.57;5.70;;;17.00;99.90;;;;;;4985971;28;20210;-73
2022/09/30 10:21:29;;;;;;;6.15;5.55;;;17.30;99.90;;;;;;4984845;28;20620;-72
2022/09/30 10:23:56;;;;;;;6.47;5.78;;;17.60;99.90;;;;;;4988280;28;20213;-73
2022/09/30 10:26:23;;;;;;;7.63;5.55;;;17.70;99.90;;;;;;4989018;28;20264;-73
2022/09/30 10:28:54;;;;;;;6.68;4.97;;;17.80;99.90;;;;;;4984427;28;20213;-73
2022/09/30 10:31:24;;;;;;;9.63;5.60;;;17.80;99.90;;;;;;4988173;28;20181;-74
2022/09/30 10:33:57;;;;;;;6.00;5.03;;;17.80;99.90;;;;;;4990873;28;20509;-73
2022/09/30 10:36:30;;;;;;;6.57;5.32;;;17.70;99.90;;;;;;4985539;28;20217;-73
2022/09/30 10:39:16;;;;;;;6.28;4.88;;;17.60;99.90;;;;;;4979613;28;20218;-73
2022/09/30 10:41:42;;;;;;;7.60;4.47;;;17.60;99.90;;;;;;4990829;28;20596;-73
2022/09/30 10:44:22;;;;;;;6.45;4.40;;;17.70;99.90;;;;;;4986682;28;20214;-73
2022/09/30 10:46:52;;;;;;;6.80;5.03;;;17.80;99.90;;;;;;4982929;28;20221;-73
2022/09/30 10:49:28;;;;;;;6.28;5.25;;;17.70;99.90;;;;;;4990113;28;20238;-74
2022/09/30 10:51:55;;;;;;;6.20;4.72;;;17.50;99.90;;;;;;4986053;28;20182;-73
2022/09/30 10:54:46;;;;;;;8.65;5.55;;;17.50;99.90;;;;;;4986691;28;20718;-73
2022/09/30 10:57:22;;;;;;;7.38;4.78;;;17.50;99.90;;;;;;4986455;28;20218;-73
2022/09/30 10:59:49;;;;;;;7.28;5.15;;;17.50;99.90;;;;;;4983289;28;20585;-73
2022/09/30 11:02:29;;;;;;;9.25;4.80;;;17.60;99.90;;;;;;4986492;28;20754;-72
2022/09/30 11:05:24;;;;;;;6.10;4.30;;;17.70;99.90;;;;;;4980495;28;20246;-72
2022/09/30 11:07:56;;;;;;;4.32;3.80;;;17.60;99.90;;;;;;4983460;28;20210;-73
2022/09/30 11:10:42;;;;;;;5.30;4.50;;;17.50;99.90;;;;;;4986463;28;20186;-73
2022/09/30 11:13:17;;;;;;;7.03;3.63;;;17.70;99.90;;;;;;4942528;28;20186;-73
2022/09/30 11:16:10;;;;;;;7.30;4.07;;;18.00;99.90;;;;;;5005684;28;20232;-73
2022/09/30 11:19:04;;;;;;;9.05;4.82;;;18.20;99.90;;;;;;4981575;28;20224;-72
2022/09/30 11:21:32;;;;;;;5.50;3.38;;;17.90;99.90;;;;;;4980263;28;20206;-73
2022/09/30 11:24:13;;;;;;;3.90;3.50;;;17.70;99.90;;;;;;4987092;28;20216;-72
2022/09/30 11:26:47;;;;;;;5.22;4.10;;;17.70;99.90;;;;;;4996321;28;20718;-73
2022/09/30 11:29:21;;;;;;;4.75;3.55;;;17.60;99.90;;;;;;4989405;28;20220;-73
2022/09/30 11:32:11;;;;;;;3.92;2.75;;;17.50;99.90;;;;;;4985171;28;20209;-73
2022/09/30 11:35:03;;;;;;;7.78;2.60;;;17.80;99.90;;;;;;4989389;28;20228;-74
2022/09/30 11:37:54;;;;;;;6.65;3.75;;;17.90;99.90;;;;;;4985511;28;20214;-74
2022/09/30 11:40:38;;;;;;;4.13;2.63;;;17.70;99.90;;;;;;4986395;28;20241;-73
2022/09/30 11:43:10;;;;;;;4.30;2.85;;;17.60;99.90;;;;;;4984162;28;20522;-73
2022/09/30 11:45:47;;;;;;;3.10;1.80;;;17.60;99.90;;;;;;4981022;28;20214;-73
2022/09/30 11:48:31;;;;;;;3.53;2.50;;;17.60;99.90;;;;;;4989474;28;20275;-73
2022/09/30 11:51:31;;;;;;;4.18;2.53;;;17.70;99.90;;;;;;4983695;28;20739;-73
2022/09/30 11:54:44;;;;;;;4.18;1.75;;;17.70;99.90;;;;;;4984117;28;20280;-72
2022/09/30 11:57:28;;;;;;;3.65;2.05;;;17.70;99.90;;;;;;4906396;29;20217;-73
2022/09/30 12:00:27;;;;;;;4.88;2.13;;;17.80;99.90;;;;;;4905714;29;20212;-73
2022/09/30 12:02:59;;;;;;;4.43;2.38;;;17.80;99.90;;;;;;4951144;28;20210;-73
2022/09/30 12:05:32;;;;;;;4.38;1.88;;;17.90;99.90;;;;;;4977233;28;20811;-73
2022/09/30 12:08:15;;;;;;;5.22;2.13;;;18.00;99.90;;;;;;4985818;28;20224;-73
2022/09/30 12:10:49;;;;;;;4.60;1.92;;;18.00;99.90;;;;;;4996115;28;20209;-73
2022/09/30 12:13:25;;;;;;;2.35;1.60;;;17.90;99.90;;;;;;4984876;28;20177;-72
2022/09/30 12:15:55;;;;;;;2.88;1.90;;;17.80;99.90;;;;;;4982833;28;20255;-73
2022/09/30 12:18:32;;;;;;;2.10;1.40;;;17.90;99.90;;;;;;4982647;28;20704;-73
2022/09/30 12:21:11;;;;;;;2.00;1.80;;;17.90;99.90;;;;;;4977049;28;20559;-72
2022/09/30 12:23:43;;;;;;;2.75;1.73;;;17.80;99.90;;;;;;4984824;28;20212;-73
2022/09/30 12:26:10;;;;;;;1.88;1.35;;;18.00;99.90;;;;;;4985952;28;20222;-73
2022/09/30 12:31:41;;;;;;;2.17;1.98;;;18.00;99.90;;;;;;4980076;28;20184;-73
2022/09/30 12:34:13;;;;;;;5.53;1.80;;;18.00;99.90;;;;;;4987763;28;20200;-73
2022/09/30 12:37:20;;;;;;;2.95;1.80;;;17.90;99.90;;;;;;4996142;28;20194;-73
2022/09/30 12:40:17;;;;;;;3.50;1.88;;;17.90;99.90;;;;;;4982925;28;20233;-73
2022/09/30 12:43:04;;;;;;;2.20;1.75;;;18.00;99.90;;;;;;4981875;28;20273;-73
2022/09/30 12:45:55;;;;;;;3.35;1.50;;;18.00;99.90;;;;;;4984655;28;20283;-73
2022/09/30 12:48:26;;;;;;;2.42;1.90;;;18.20;99.90;;;;;;4983054;28;20209;-73
2022/09/30 12:50:56;;;;;;;2.10;1.63;;;18.10;99.90;;;;;;4986135;28;20206;-73
2022/09/30 12:53:31;;;;;;;2.30;2.05;;;18.20;99.90;;;;;;4985687;28;20268;-73
2022/09/30 12:56:05;;;;;;;3.15;1.95;;;18.10;99.90;;;;;;4977557;28;20242;-73
2022/09/30 12:58:36;;;;;;;2.60;2.40;;;18.00;99.90;;;;;;4989651;28;20217;-73
2022/09/30 13:01:15;;;;;;;3.00;1.55;;;17.90;99.90;;;;;;4981632;28;20653;-72
2022/09/30 13:03:47;;;;;;;3.15;2.22;;;17.90;99.90;;;;;;4981384;28;20224;-72
2022/09/30 13:06:14;;;;;;;3.75;2.55;;;18.00;99.90;;;;;;4984833;28;20364;-73
2022/09/30 13:09:04;;;;;;;4.72;2.10;;;18.00;99.90;;;;;;4986727;28;20693;-73
2022/09/30 13:11:35;;;;;;;2.95;1.92;;;18.00;99.90;;;;;;4984702;28;20205;-72
2022/09/30 13:14:28;;;;;;;3.92;1.80;;;18.00;99.90;;;;;;4992181;28;20213;-72
2022/09/30 13:17:03;;;;;;;3.28;1.92;;;18.00;99.90;;;;;;4990135;28;20313;-73
2022/09/30 13:19:35;;;;;;;5.47;2.42;;;18.00;99.90;;;;;;4991565;28;20304;-72
2022/09/30 13:22:19;;;;;;;3.03;1.80;;;17.80;99.90;;;;;;4982596;28;20284;-73
2022/09/30 13:24:57;;;;;;;4.55;2.33;;;17.90;99.90;;;;;;4985466;28;20228;-72